Flight Number: EUR3026 Duration: 11:30
Departure: Tel Aviv Ben Gurion (LLBG) at 08:00 Distance: 4920 Nm
Arrival: John F Kennedy Int'l (KJFK) at 19:30 Equipment: B777

Weather Information
Ben-Gurion International Airport, Israel (LLBG) 32-00N 034-54E 49M Oct 19, 2018 - 01:50 PM EDT / 2018.10.19 1750 UTC
Wind: Variable at 3 MPH (3 KT):0
Visibility: greater than 7 mile(s):0
Sky conditions: mostly clear Temperature: 77 F (25 C) Dew Point: 68 F (20 C) Relative Humidity: 73% Pressure (altimeter): 29.91 in. Hg (1013 hPa)
ob: LLBG 191750Z VRB03KT 9999 FEW030 25/20 Q1013 NOSIG cycle: 18
Sunrise: 03:49 Sunset: 15:00 (UTC)

KENNEDY INTERNATIONAL AIRPORT , NY, United States (KJFK) 40-38N 073-46W 9M Oct 19, 2018 - 01:51 PM EDT / 2018.10.19 1751 UTC
Wind: from the SW (230 degrees) at 16 MPH (14 KT):0
Visibility: 10 mile(s):0
Sky conditions: mostly cloudy Temperature: 57.0 F (13.9 C) Dew Point: 37.9 F (3.3 C) Relative Humidity: 48% Pressure (altimeter): 30.18 in. Hg (1022 hPa) Pressure tendency: 0.10 inches (3.4 hPa) lower than three hours ago
ob: KJFK 191751Z 23014KT 10SM BKN250 14/03 A3018 RMK AO2 SLP220 T01390033 10150 20078 58034 cycle: 18
Sunrise: 11:14 Sunset: 22:05 (UTC)

TAF:2018/10/19 18:50 TAF KJFK 191742Z 1918/2024 23016G21KT P6SM SCT250 FM200200 22017G24KT P6SM BKN250 FM200700 22017G25KT P6SM OVC050 FM200900 23014G22KT 6SM -SHRA OVC035 FM201100 23014G22KT 6SM -SHRA OVC025 FM201400 25014G23KT P6SM BKN040 FM201800 26015G22KT P6SM SCT060 FM202200 27013G21KT P6SM BKN150

Previous Pireps for this route
Date Aircraft Flight time Fuel used Landing rate On time
2016-02-03A34010.29201758-289Charter
(pireps marked green are flown by you)

Route map